sensor_id;sensor_type;location;lat;lon;timestamp;pressure;altitude;pressure_sealevel;temperature;humidity
59825;BME280;45703;50.898;6.054;2023-07-22T00:01:09;100056.69;;;13.78;74.43
59825;BME280;45703;50.898;6.054;2023-07-22T00:03:34;100071.94;;;13.77;74.58
59825;BME280;45703;50.898;6.054;2023-07-22T00:06:08;100051.97;;;13.68;74.27
59825;BME280;45703;50.898;6.054;2023-07-22T00:08:34;100061.41;;;13.71;74.72
59825;BME280;45703;50.898;6.054;2023-07-22T00:11:00;100062.38;;;13.65;74.95
59825;BME280;45703;50.898;6.054;2023-07-22T00:13:26;100062.97;;;13.67;75.07
59825;BME280;45703;50.898;6.054;2023-07-22T00:15:53;100062.38;;;13.65;75.04
59825;BME280;45703;50.898;6.054;2023-07-22T00:18:18;100052.66;;;13.59;75.36
59825;BME280;45703;50.898;6.054;2023-07-22T00:20:44;100063.69;;;13.62;75.39
59825;BME280;45703;50.898;6.054;2023-07-22T00:23:09;100060.13;;;13.57;75.08
59825;BME280;45703;50.898;6.054;2023-07-22T00:25:35;100059.06;;;13.58;75.19
59825;BME280;45703;50.898;6.054;2023-07-22T00:28:01;100054.41;;;13.53;75.66
59825;BME280;45703;50.898;6.054;2023-07-22T00:30:26;100051.66;;;13.48;75.83
59825;BME280;45703;50.898;6.054;2023-07-22T00:32:59;100052.22;;;13.50;76.22
59825;BME280;45703;50.898;6.054;2023-07-22T00:35:24;100052.16;;;13.45;76.24
59825;BME280;45703;50.898;6.054;2023-07-22T00:37:50;100057.03;;;13.48;76.12
59825;BME280;45703;50.898;6.054;2023-07-22T00:40:15;100058.31;;;13.46;76.31
59825;BME280;45703;50.898;6.054;2023-07-22T00:42:42;100059.38;;;13.45;76.57
59825;BME280;45703;50.898;6.054;2023-07-22T00:45:08;100057.19;;;13.42;76.68
59825;BME280;45703;50.898;6.054;2023-07-22T00:47:34;100066.63;;;13.44;76.59
59825;BME280;45703;50.898;6.054;2023-07-22T00:50:01;100065.78;;;13.44;76.39
59825;BME280;45703;50.898;6.054;2023-07-22T00:52:27;100059.06;;;13.41;76.64
59825;BME280;45703;50.898;6.054;2023-07-22T00:54:53;100059.84;;;13.42;76.66
59825;BME280;45703;50.898;6.054;2023-07-22T00:57:18;100045.25;;;13.33;76.89
59825;BME280;45703;50.898;6.054;2023-07-22T00:59:46;100052.78;;;13.36;76.57
59825;BME280;45703;50.898;6.054;2023-07-22T01:02:13;100047.13;;;13.32;76.81
59825;BME280;45703;50.898;6.054;2023-07-22T01:04:41;100040.38;;;13.30;76.94
59825;BME280;45703;50.898;6.054;2023-07-22T01:07:07;100038.75;;;13.29;77.03
59825;BME280;45703;50.898;6.054;2023-07-22T01:09:37;100042.47;;;13.28;76.86
59825;BME280;45703;50.898;6.054;2023-07-22T01:12:12;100043.03;;;13.30;77.15
59825;BME280;45703;50.898;6.054;2023-07-22T01:14:41;100038.16;;;13.27;77.48
59825;BME280;45703;50.898;6.054;2023-07-22T01:17:08;100033.03;;;13.25;77.67
59825;BME280;45703;50.898;6.054;2023-07-22T01:19:35;100032.72;;;13.22;77.41
59825;BME280;45703;50.898;6.054;2023-07-22T01:22:03;100031.66;;;13.23;77.56
59825;BME280;45703;50.898;6.054;2023-07-22T01:24:31;100039.16;;;13.21;77.68
59825;BME280;45703;50.898;6.054;2023-07-22T01:26:57;100024.59;;;13.17;77.69
59825;BME280;45703;50.898;6.054;2023-07-22T01:29:24;100019.16;;;13.12;77.92
59825;BME280;45703;50.898;6.054;2023-07-22T01:31:51;100022.41;;;13.14;77.90
59825;BME280;45703;50.898;6.054;2023-07-22T01:34:17;100021.75;;;13.07;78.21
59825;BME280;45703;50.898;6.054;2023-07-22T01:36:46;100032.78;;;13.10;78.50
59825;BME280;45703;50.898;6.054;2023-07-22T01:39:16;100020.94;;;13.06;78.48
59825;BME280;45703;50.898;6.054;2023-07-22T01:41:41;100025.72;;;13.04;78.42
59825;BME280;45703;50.898;6.054;2023-07-22T01:44:07;100011.91;;;12.96;78.60
59825;BME280;45703;50.898;6.054;2023-07-22T01:46:33;100001.53;;;12.88;79.33
59825;BME280;45703;50.898;6.054;2023-07-22T01:48:59;100024.81;;;12.99;79.52
59825;BME280;45703;50.898;6.054;2023-07-22T01:51:24;100024.25;;;12.97;79.40
59825;BME280;45703;50.898;6.054;2023-07-22T01:53:51;100000.41;;;12.84;79.33
59825;BME280;45703;50.898;6.054;2023-07-22T01:56:17;100019.63;;;12.93;79.90
59825;BME280;45703;50.898;6.054;2023-07-22T01:58:42;100017.13;;;12.91;79.48
59825;BME280;45703;50.898;6.054;2023-07-22T02:01:08;100019.03;;;12.91;79.57
59825;BME280;45703;50.898;6.054;2023-07-22T02:03:34;100009.50;;;12.83;79.66
59825;BME280;45703;50.898;6.054;2023-07-22T02:06:03;100008.69;;;12.83;79.62
59825;BME280;45703;50.898;6.054;2023-07-22T02:08:28;99999.75;;;12.77;79.89
59825;BME280;45703;50.898;6.054;2023-07-22T02:10:54;100017.78;;;12.82;79.81
59825;BME280;45703;50.898;6.054;2023-07-22T02:13:19;100010.81;;;12.81;80.01
59825;BME280;45703;50.898;6.054;2023-07-22T02:15:45;100010.81;;;12.81;79.86
59825;BME280;45703;50.898;6.054;2023-07-22T02:18:10;100000.81;;;12.76;80.05
59825;BME280;45703;50.898;6.054;2023-07-22T02:20:35;99989.91;;;12.66;80.03
59825;BME280;45703;50.898;6.054;2023-07-22T02:23:01;100010.72;;;12.76;80.42
59825;BME280;45703;50.898;6.054;2023-07-22T02:25:26;100015.25;;;12.75;80.48
59825;BME280;45703;50.898;6.054;2023-07-22T02:27:52;100012.56;;;12.75;80.65
59825;BME280;45703;50.898;6.054;2023-07-22T02:30:17;100002.34;;;12.72;80.73
59825;BME280;45703;50.898;6.054;2023-07-22T02:32:43;100000.22;;;12.74;80.92
59825;BME280;45703;50.898;6.054;2023-07-22T02:35:09;100003.97;;;12.73;81.00
59825;BME280;45703;50.898;6.054;2023-07-22T02:37:37;100006.63;;;12.73;81.19
59825;BME280;45703;50.898;6.054;2023-07-22T02:40:03;100011.16;;;12.73;80.95
59825;BME280;45703;50.898;6.054;2023-07-22T02:42:34;100010.94;;;12.74;81.37
59825;BME280;45703;50.898;6.054;2023-07-22T02:45:01;100004.44;;;12.70;81.63
59825;BME280;45703;50.898;6.054;2023-07-22T02:47:26;100001.19;;;12.68;81.46
59825;BME280;45703;50.898;6.054;2023-07-22T02:49:52;100004.75;;;12.74;81.50
59825;BME280;45703;50.898;6.054;2023-07-22T02:52:17;99991.75;;;12.66;81.43
59825;BME280;45703;50.898;6.054;2023-07-22T02:57:34;100002.34;;;12.72;81.61
59825;BME280;45703;50.898;6.054;2023-07-22T03:00:00;100008.25;;;12.74;81.31
59825;BME280;45703;50.898;6.054;2023-07-22T03:02:25;99995.34;;;12.71;81.35
59825;BME280;45703;50.898;6.054;2023-07-22T03:04:50;100007.22;;;12.75;81.21
59825;BME280;45703;50.898;6.054;2023-07-22T03:07:16;100006.63;;;12.73;82.02
59825;BME280;45703;50.898;6.054;2023-07-22T03:09:41;100014.19;;;12.76;82.00
59825;BME280;45703;50.898;6.054;2023-07-22T03:12:07;100004.53;;;12.75;82.19
59825;BME280;45703;50.898;6.054;2023-07-22T03:14:33;100004.63;;;12.80;82.46
59825;BME280;45703;50.898;6.054;2023-07-22T03:17:02;100000.56;;;12.78;82.58
59825;BME280;45703;50.898;6.054;2023-07-22T03:19:30;100014.84;;;12.83;82.81
59825;BME280;45703;50.898;6.054;2023-07-22T03:21:55;100009.97;;;12.80;82.34
59825;BME280;45703;50.898;6.054;2023-07-22T03:24:20;100025.66;;;12.88;81.49
59825;BME280;45703;50.898;6.054;2023-07-22T03:26:48;100020.31;;;12.88;80.78
59825;BME280;45703;50.898;6.054;2023-07-22T03:29:14;100024.38;;;12.91;80.47
59825;BME280;45703;50.898;6.054;2023-07-22T03:31:39;100011.47;;;12.88;79.78
59825;BME280;45703;50.898;6.054;2023-07-22T03:34:04;100023.66;;;12.95;80.62
59825;BME280;45703;50.898;6.054;2023-07-22T03:36:34;100022.13;;;12.99;79.56
59825;BME280;45703;50.898;6.054;2023-07-22T03:39:08;100022.56;;;13.07;78.52
59825;BME280;45703;50.898;6.054;2023-07-22T03:41:33;100019.66;;;13.09;77.93
59825;BME280;45703;50.898;6.054;2023-07-22T03:44:01;100018.69;;;13.15;77.24
59825;BME280;45703;50.898;6.054;2023-07-22T03:46:26;100030.84;;;13.22;77.16
59825;BME280;45703;50.898;6.054;2023-07-22T03:48:52;100027.09;;;13.23;77.47
59825;BME280;45703;50.898;6.054;2023-07-22T03:51:19;100003.88;;;13.12;77.34
59825;BME280;45703;50.898;6.054;2023-07-22T03:53:45;100023.94;;;13.26;77.06
59825;BME280;45703;50.898;6.054;2023-07-22T03:56:10;100013.41;;;13.20;76.87
59825;BME280;45703;50.898;6.054;2023-07-22T03:58:35;100022.44;;;13.30;76.57
59825;BME280;45703;50.898;6.054;2023-07-22T04:01:01;100023.72;;;13.28;76.53
59825;BME280;45703;50.898;6.054;2023-07-22T04:03:26;100030.69;;;13.29;77.25
59825;BME280;45703;50.898;6.054;2023-07-22T04:05:57;100030.69;;;13.29;77.51
59825;BME280;45703;50.898;6.054;2023-07-22T04:08:23;100017.69;;;13.21;78.06
59825;BME280;45703;50.898;6.054;2023-07-22T04:10:56;100026.88;;;13.25;77.78
59825;BME280;45703;50.898;6.054;2023-07-22T04:13:24;100027.94;;;13.24;77.59
59825;BME280;45703;50.898;6.054;2023-07-22T04:15:50;100034.91;;;13.25;76.54
59825;BME280;45703;50.898;6.054;2023-07-22T04:18:16;100036.06;;;13.29;76.33
59825;BME280;45703;50.898;6.054;2023-07-22T04:20:42;100032.88;;;13.32;76.28
59825;BME280;45703;50.898;6.054;2023-07-22T04:23:08;100029.72;;;13.35;75.61
59825;BME280;45703;50.898;6.054;2023-07-22T04:25:41;100031.91;;;13.38;75.91
59825;BME280;45703;50.898;6.054;2023-07-22T04:28:07;100028.75;;;13.41;75.85
59825;BME280;45703;50.898;6.054;2023-07-22T04:30:34;100022.16;;;13.48;75.34
59825;BME280;45703;50.898;6.054;2023-07-22T04:33:00;100004.03;;;13.39;75.59
59825;BME280;45703;50.898;6.054;2023-07-22T04:35:25;100020.84;;;13.51;75.75
59825;BME280;45703;50.898;6.054;2023-07-22T04:37:50;100007.94;;;13.48;76.05
59825;BME280;45703;50.898;6.054;2023-07-22T04:40:16;100017.22;;;13.57;75.97
59825;BME280;45703;50.898;6.054;2023-07-22T04:42:46;100018.00;;;13.57;76.26
59825;BME280;45703;50.898;6.054;2023-07-22T04:45:11;100019.63;;;13.58;76.70
59825;BME280;45703;50.898;6.054;2023-07-22T04:47:38;100013.47;;;13.58;76.77
59825;BME280;45703;50.898;6.054;2023-07-22T04:50:07;100008.59;;;13.55;76.96
59825;BME280;45703;50.898;6.054;2023-07-22T04:52:36;100016.44;;;13.61;76.56
59825;BME280;45703;50.898;6.054;2023-07-22T04:55:02;100012.91;;;13.56;76.88
59825;BME280;45703;50.898;6.054;2023-07-22T04:57:37;100024.84;;;13.65;76.14
59825;BME280;45703;50.898;6.054;2023-07-22T05:00:04;100022.72;;;13.67;76.23
59825;BME280;45703;50.898;6.054;2023-07-22T05:02:30;100024.56;;;13.66;76.29
59825;BME280;45703;50.898;6.054;2023-07-22T05:04:56;100024.66;;;13.71;77.05
59825;BME280;45703;50.898;6.054;2023-07-22T05:07:21;100015.25;;;13.69;75.82
59825;BME280;45703;50.898;6.054;2023-07-22T05:09:47;100020.66;;;13.74;75.77
59825;BME280;45703;50.898;6.054;2023-07-22T05:12:12;100028.84;;;13.84;75.84
59825;BME280;45703;50.898;6.054;2023-07-22T05:14:40;100025.75;;;13.92;75.00
59825;BME280;45703;50.898;6.054;2023-07-22T05:17:05;100021.50;;;13.96;75.40
59825;BME280;45703;50.898;6.054;2023-07-22T05:19:31;100024.03;;;14.02;75.34
59825;BME280;45703;50.898;6.054;2023-07-22T05:21:56;100020.19;;;14.15;74.69
59825;BME280;45703;50.898;6.054;2023-07-22T05:24:21;100024.88;;;14.24;74.24
59825;BME280;45703;50.898;6.054;2023-07-22T05:26:47;100027.94;;;14.33;74.70
59825;BME280;45703;50.898;6.054;2023-07-22T05:29:12;100022.63;;;14.38;74.25
59825;BME280;45703;50.898;6.054;2023-07-22T05:31:38;100030.00;;;14.47;73.70
59825;BME280;45703;50.898;6.054;2023-07-22T05:34:04;100015.50;;;14.48;73.70
59825;BME280;45703;50.898;6.054;2023-07-22T05:36:29;100026.34;;;14.58;73.47
59825;BME280;45703;50.898;6.054;2023-07-22T05:38:57;100006.63;;;14.47;73.67
59825;BME280;45703;50.898;6.054;2023-07-22T05:41:28;100017.78;;;14.61;73.78
59825;BME280;45703;50.898;6.054;2023-07-22T05:43:56;100033.72;;;14.67;74.05
59825;BME280;45703;50.898;6.054;2023-07-22T05:46:21;100037.25;;;14.73;73.42
59825;BME280;45703;50.898;6.054;2023-07-22T05:48:47;100020.38;;;14.77;73.86
59825;BME280;45703;50.898;6.054;2023-07-22T05:51:12;100018.81;;;14.81;73.96
59825;BME280;45703;50.898;6.054;2023-07-22T05:53:40;100025.66;;;14.94;73.64
59825;BME280;45703;50.898;6.054;2023-07-22T05:56:05;100018.75;;;15.03;73.99
59825;BME280;45703;50.898;6.054;2023-07-22T05:58:31;100008.31;;;15.06;73.87
59825;BME280;45703;50.898;6.054;2023-07-22T06:00:56;100020.75;;;15.12;73.39
59825;BME280;45703;50.898;6.054;2023-07-22T06:03:22;100032.75;;;15.31;73.01
59825;BME280;45703;50.898;6.054;2023-07-22T06:05:49;100017.16;;;15.33;72.75
59825;BME280;45703;50.898;6.054;2023-07-22T06:08:15;100011.00;;;15.33;72.55
59825;BME280;45703;50.898;6.054;2023-07-22T06:10:44;100025.31;;;15.43;72.58
59825;BME280;45703;50.898;6.054;2023-07-22T06:13:12;100015.31;;;15.34;72.56
59825;BME280;45703;50.898;6.054;2023-07-22T06:15:39;100016.13;;;15.39;73.24
59825;BME280;45703;50.898;6.054;2023-07-22T06:18:05;100042.88;;;15.51;72.67
59825;BME280;45703;50.898;6.054;2023-07-22T06:20:34;100015.63;;;15.42;72.68
59825;BME280;45703;50.898;6.054;2023-07-22T06:23:01;100032.16;;;15.56;72.72
59825;BME280;45703;50.898;6.054;2023-07-22T06:25:27;100034.00;;;15.55;73.03
59825;BME280;45703;50.898;6.054;2023-07-22T06:27:52;100025.31;;;15.43;73.50
59825;BME280;45703;50.898;6.054;2023-07-22T06:30:20;100033.97;;;15.50;73.67
59825;BME280;45703;50.898;6.054;2023-07-22T06:32:45;100039.38;;;15.55;73.43
59825;BME280;45703;50.898;6.054;2023-07-22T06:35:11;100020.00;;;15.53;73.31
59825;BME280;45703;50.898;6.054;2023-07-22T06:37:36;100037.88;;;15.64;73.60
59825;BME280;45703;50.898;6.054;2023-07-22T06:40:06;100027.09;;;15.64;73.43
59825;BME280;45703;50.898;6.054;2023-07-22T06:42:31;100031.97;;;15.67;73.63
59825;BME280;45703;50.898;6.054;2023-07-22T06:44:56;100037.63;;;15.71;73.60
59825;BME280;45703;50.898;6.054;2023-07-22T06:47:22;100044.09;;;15.75;73.79
59825;BME280;45703;50.898;6.054;2023-07-22T06:49:47;100032.81;;;15.78;73.95
59825;BME280;45703;50.898;6.054;2023-07-22T06:52:13;100039.59;;;15.85;73.52
59825;BME280;45703;50.898;6.054;2023-07-22T06:54:39;100032.38;;;15.91;73.86
59825;BME280;45703;50.898;6.054;2023-07-22T06:57:04;100030.00;;;15.99;73.37
59825;BME280;45703;50.898;6.054;2023-07-22T06:59:31;100031.63;;;16.05;73.48
59825;BME280;45703;50.898;6.054;2023-07-22T07:01:56;100037.09;;;16.15;73.17
59825;BME280;45703;50.898;6.054;2023-07-22T07:04:22;100038.22;;;16.24;73.81
59825;BME280;45703;50.898;6.054;2023-07-22T07:06:47;100033.72;;;16.34;72.92
59825;BME280;45703;50.898;6.054;2023-07-22T07:09:13;100023.75;;;16.40;72.37
59825;BME280;45703;50.898;6.054;2023-07-22T07:11:38;100038.34;;;16.54;72.76
59825;BME280;45703;50.898;6.054;2023-07-22T07:14:03;100034.09;;;16.63;73.10
59825;BME280;45703;50.898;6.054;2023-07-22T07:16:30;100030.06;;;16.70;73.24
59825;BME280;45703;50.898;6.054;2023-07-22T07:18:57;100029.81;;;16.82;73.00
59825;BME280;45703;50.898;6.054;2023-07-22T07:21:23;100021.22;;;16.90;72.20
59825;BME280;45703;50.898;6.054;2023-07-22T07:23:50;100033.63;;;17.06;71.61
59825;BME280;45703;50.898;6.054;2023-07-22T07:26:16;100031.47;;;17.08;71.68
59825;BME280;45703;50.898;6.054;2023-07-22T07:28:42;100028.81;;;17.13;71.70
59825;BME280;45703;50.898;6.054;2023-07-22T07:31:07;100036.06;;;17.12;71.60
59825;BME280;45703;50.898;6.054;2023-07-22T07:33:33;100033.66;;;17.21;71.59
59825;BME280;45703;50.898;6.054;2023-07-22T07:35:59;100039.06;;;17.26;71.46
59825;BME280;45703;50.898;6.054;2023-07-22T07:38:25;100041.25;;;17.34;71.54
59825;BME280;45703;50.898;6.054;2023-07-22T07:40:56;100048.25;;;17.40;71.20
59825;BME280;45703;50.898;6.054;2023-07-22T07:43:21;100040.44;;;17.43;71.42
59825;BME280;45703;50.898;6.054;2023-07-22T07:45:47;100039.38;;;17.49;71.01
59825;BME280;45703;50.898;6.054;2023-07-22T07:48:12;100036.38;;;17.50;70.78
59825;BME280;45703;50.898;6.054;2023-07-22T07:50:37;100042.84;;;17.59;70.47
59825;BME280;45703;50.898;6.054;2023-07-22T07:53:03;100041.25;;;17.63;70.51
59825;BME280;45703;50.898;6.054;2023-07-22T07:55:28;100053.91;;;17.73;70.88
59825;BME280;45703;50.898;6.054;2023-07-22T07:57:54;100045.53;;;17.79;69.84
59825;BME280;45703;50.898;6.054;2023-07-22T08:00:19;100052.00;;;17.88;70.14
59825;BME280;45703;50.898;6.054;2023-07-22T08:02:46;100043.91;;;17.88;69.54
59825;BME280;45703;50.898;6.054;2023-07-22T08:05:12;100053.63;;;17.94;69.63
59825;BME280;45703;50.898;6.054;2023-07-22T08:07:38;100052.53;;;17.95;69.57
59825;BME280;45703;50.898;6.054;2023-07-22T08:10:04;100059.53;;;18.01;70.21
59825;BME280;45703;50.898;6.054;2023-07-22T08:12:30;100054.13;;;18.06;69.58
59825;BME280;45703;50.898;6.054;2023-07-22T08:14:56;100051.41;;;18.11;69.12
59825;BME280;45703;50.898;6.054;2023-07-22T08:17:21;100051.13;;;18.18;69.19
59825;BME280;45703;50.898;6.054;2023-07-22T08:19:53;100059.53;;;18.26;69.11
59825;BME280;45703;50.898;6.054;2023-07-22T08:22:18;100051.38;;;18.31;69.28
59825;BME280;45703;50.898;6.054;2023-07-22T08:24:44;100045.41;;;18.39;68.89
59825;BME280;45703;50.898;6.054;2023-07-22T08:27:12;100053.75;;;18.53;69.28
59825;BME280;45703;50.898;6.054;2023-07-22T08:29:40;100043.16;;;18.56;68.37
59825;BME280;45703;50.898;6.054;2023-07-22T08:32:06;100053.41;;;18.69;68.56
59825;BME280;45703;50.898;6.054;2023-07-22T08:34:31;100038.22;;;18.73;67.04
59825;BME280;45703;50.898;6.054;2023-07-22T08:36:57;100050.06;;;18.82;67.13
59825;BME280;45703;50.898;6.054;2023-07-22T08:39:22;100041.41;;;18.85;65.92
59825;BME280;45703;50.898;6.054;2023-07-22T08:41:49;100039.78;;;18.84;65.35
59825;BME280;45703;50.898;6.054;2023-07-22T08:44:19;100038.41;;;18.87;65.02
59825;BME280;45703;50.898;6.054;2023-07-22T08:46:46;100048.91;;;18.93;66.05
59825;BME280;45703;50.898;6.054;2023-07-22T08:49:13;100040.78;;;18.98;65.25
59825;BME280;45703;50.898;6.054;2023-07-22T08:51:39;100035.31;;;19.03;65.27
59825;BME280;45703;50.898;6.054;2023-07-22T08:54:05;100036.34;;;19.12;65.42
59825;BME280;45703;50.898;6.054;2023-07-22T08:56:31;100030.94;;;19.17;64.97
59825;BME280;45703;50.898;6.054;2023-07-22T08:58:57;100033.06;;;19.25;64.69
59825;BME280;45703;50.898;6.054;2023-07-22T09:01:23;100030.91;;;19.22;64.06
59825;BME280;45703;50.898;6.054;2023-07-22T09:03:49;100029.28;;;19.21;63.35
59825;BME280;45703;50.898;6.054;2023-07-22T09:06:21;100036.28;;;19.27;64.32
59825;BME280;45703;50.898;6.054;2023-07-22T09:08:46;100040.66;;;19.23;63.59
59825;BME280;45703;50.898;6.054;2023-07-22T09:11:13;100040.66;;;19.23;64.05
59825;BME280;45703;50.898;6.054;2023-07-22T09:13:39;100023.88;;;19.21;62.63
59825;BME280;45703;50.898;6.054;2023-07-22T09:16:06;100034.06;;;19.34;63.15
59825;BME280;45703;50.898;6.054;2023-07-22T09:18:33;100039.44;;;19.39;64.18
59825;BME280;45703;50.898;6.054;2023-07-22T09:20:59;100034.75;;;19.49;63.49
59825;BME280;45703;50.898;6.054;2023-07-22T09:23:38;100044.31;;;19.70;61.40
59825;BME280;45703;50.898;6.054;2023-07-22T09:26:12;100040.13;;;19.83;61.57
59825;BME280;45703;50.898;6.054;2023-07-22T09:28:57;100032.94;;;19.97;62.07
59825;BME280;45703;50.898;6.054;2023-07-22T09:31:26;100035.28;;;20.08;61.65
59825;BME280;45703;50.898;6.054;2023-07-22T09:33:54;100031.69;;;20.13;59.68
59825;BME280;45703;50.898;6.054;2023-07-22T09:36:19;100032.22;;;20.15;58.48
59825;BME280;45703;50.898;6.054;2023-07-22T09:38:45;100030.13;;;20.07;57.61
59825;BME280;45703;50.898;6.054;2023-07-22T09:41:27;100031.00;;;20.02;58.48
59825;BME280;45703;50.898;6.054;2023-07-22T09:43:53;100031.22;;;20.06;57.81
59825;BME280;45703;50.898;6.054;2023-07-22T09:46:18;100024.44;;;20.08;58.77
59825;BME280;45703;50.898;6.054;2023-07-22T09:48:44;100036.31;;;20.12;57.84
59825;BME280;45703;50.898;6.054;2023-07-22T09:51:16;100034.13;;;20.14;57.75
59825;BME280;45703;50.898;6.054;2023-07-22T09:53:59;100027.09;;;20.13;58.35
59825;BME280;45703;50.898;6.054;2023-07-22T09:56:25;100023.53;;;20.18;57.60
59825;BME280;45703;50.898;6.054;2023-07-22T09:58:51;100023.75;;;20.21;58.74
59825;BME280;45703;50.898;6.054;2023-07-22T10:01:19;100008.97;;;20.32;59.04
59825;BME280;45703;50.898;6.054;2023-07-22T10:03:45;100023.72;;;20.44;58.65
59825;BME280;45703;50.898;6.054;2023-07-22T10:06:13;100013.84;;;20.53;57.02
59825;BME280;45703;50.898;6.054;2023-07-22T10:08:41;100020.22;;;20.62;57.94
59825;BME280;45703;50.898;6.054;2023-07-22T10:11:11;99999.34;;;20.63;56.52
59825;BME280;45703;50.898;6.054;2023-07-22T10:13:38;100021.22;;;20.71;57.82
59825;BME280;45703;50.898;6.054;2023-07-22T10:16:04;100014.09;;;20.75;58.05
59825;BME280;45703;50.898;6.054;2023-07-22T10:18:33;100008.88;;;20.79;57.46
59825;BME280;45703;50.898;6.054;2023-07-22T10:21:02;100007.72;;;20.85;57.96
59825;BME280;45703;50.898;6.054;2023-07-22T10:23:29;100005.25;;;20.88;58.22
59825;BME280;45703;50.898;6.054;2023-07-22T10:25:57;100005.59;;;21.00;56.57
59825;BME280;45703;50.898;6.054;2023-07-22T10:28:23;99999.06;;;21.01;58.00
59825;BME280;45703;50.898;6.054;2023-07-22T10:30:49;99996.13;;;21.16;56.99
59825;BME280;45703;50.898;6.054;2023-07-22T10:33:16;99985.41;;;21.25;56.89
59825;BME280;45703;50.898;6.054;2023-07-22T10:35:42;100000.72;;;21.34;55.86
59825;BME280;45703;50.898;6.054;2023-07-22T10:38:16;99996.00;;;21.40;56.53
59825;BME280;45703;50.898;6.054;2023-07-22T10:40:46;99998.34;;;21.46;54.60
59825;BME280;45703;50.898;6.054;2023-07-22T10:43:12;99993.94;;;21.50;53.42
59825;BME280;45703;50.898;6.054;2023-07-22T10:45:43;99993.31;;;21.53;53.15
59825;BME280;45703;50.898;6.054;2023-07-22T10:48:12;99989.50;;;21.54;54.28
59825;BME280;45703;50.898;6.054;2023-07-22T10:53:12;99992.66;;;21.61;52.50
59825;BME280;45703;50.898;6.054;2023-07-22T11:11:58;99973.41;;;22.03;50.28
59825;BME280;45703;50.898;6.054;2023-07-22T11:14:26;99973.06;;;22.18;46.97
59825;BME280;45703;50.898;6.054;2023-07-22T11:16:52;99964.41;;;22.29;47.93
59825;BME280;45703;50.898;6.054;2023-07-22T11:19:22;99960.09;;;22.42;47.08
59825;BME280;45703;50.898;6.054;2023-07-22T11:21:49;99958.28;;;22.51;47.30
59825;BME280;45703;50.898;6.054;2023-07-22T11:24:16;99954.66;;;22.55;46.02
59825;BME280;45703;50.898;6.054;2023-07-22T11:26:42;99960.75;;;22.61;43.00
59825;BME280;45703;50.898;6.054;2023-07-22T11:29:08;99970.41;;;22.67;44.26
59825;BME280;45703;50.898;6.054;2023-07-22T11:31:36;99952.38;;;22.71;45.28
59825;BME280;45703;50.898;6.054;2023-07-22T11:34:02;99944.53;;;22.69;45.03
59825;BME280;45703;50.898;6.054;2023-07-22T11:36:28;99953.06;;;22.76;44.83
59825;BME280;45703;50.898;6.054;2023-07-22T11:39:04;99966.13;;;22.88;46.12
59825;BME280;45703;50.898;6.054;2023-07-22T11:41:30;99941.75;;;22.83;41.72
59825;BME280;45703;50.898;6.054;2023-07-22T11:44:00;99949.47;;;22.89;43.49
59825;BME280;45703;50.898;6.054;2023-07-22T11:46:26;99950.72;;;22.83;41.68
59825;BME280;45703;50.898;6.054;2023-07-22T11:48:53;99940.78;;;22.79;44.81
59825;BME280;45703;50.898;6.054;2023-07-22T11:51:25;99949.81;;;22.88;45.34
59825;BME280;45703;50.898;6.054;2023-07-22T11:53:52;99942.75;;;22.87;43.85
59825;BME280;45703;50.898;6.054;2023-07-22T11:56:27;99948.06;;;22.92;44.40
59825;BME280;45703;50.898;6.054;2023-07-22T11:58:56;99941.50;;;22.93;42.96
59825;BME280;45703;50.898;6.054;2023-07-22T12:01:23;99948.56;;;22.94;43.56
59825;BME280;45703;50.898;6.054;2023-07-22T12:03:49;99929.38;;;22.99;44.90
59825;BME280;45703;50.898;6.054;2023-07-22T12:06:20;99926.97;;;22.97;44.17
59825;BME280;45703;50.898;6.054;2023-07-22T12:08:49;99929.38;;;22.99;43.08
59825;BME280;45703;50.898;6.054;2023-07-22T12:11:24;99923.72;;;22.95;43.96
59825;BME280;45703;50.898;6.054;2023-07-22T12:14:13;99931.19;;;23.03;43.67
59825;BME280;45703;50.898;6.054;2023-07-22T12:16:41;99926.94;;;23.11;45.48
59825;BME280;45703;50.898;6.054;2023-07-22T12:19:12;99929.75;;;23.06;45.13
59825;BME280;45703;50.898;6.054;2023-07-22T12:21:40;99915.28;;;22.97;44.66
59825;BME280;45703;50.898;6.054;2023-07-22T12:24:05;99904.63;;;22.87;44.98
59825;BME280;45703;50.898;6.054;2023-07-22T12:26:31;99912.84;;;22.95;44.45
59825;BME280;45703;50.898;6.054;2023-07-22T12:28:56;99909.81;;;22.97;44.46
59825;BME280;45703;50.898;6.054;2023-07-22T12:31:22;99903.59;;;22.96;44.75
59825;BME280;45703;50.898;6.054;2023-07-22T12:33:47;99908.47;;;23.08;44.23
59825;BME280;45703;50.898;6.054;2023-07-22T12:36:13;99904.72;;;23.17;45.41
59825;BME280;45703;50.898;6.054;2023-07-22T12:38:38;99905.75;;;23.30;44.74
59825;BME280;45703;50.898;6.054;2023-07-22T12:41:03;99901.44;;;23.29;45.77
59825;BME280;45703;50.898;6.054;2023-07-22T12:43:29;99910.78;;;23.45;45.23
59825;BME280;45703;50.898;6.054;2023-07-22T12:45:55;99903.47;;;23.53;44.85
59825;BME280;45703;50.898;6.054;2023-07-22T12:48:21;99905.75;;;23.60;44.42
59825;BME280;45703;50.898;6.054;2023-07-22T12:50:46;99899.94;;;23.53;43.70
59825;BME280;45703;50.898;6.054;2023-07-22T12:53:14;99907.03;;;23.62;44.07
59825;BME280;45703;50.898;6.054;2023-07-22T12:55:40;99899.72;;;23.80;45.74
59825;BME280;45703;50.898;6.054;2023-07-22T12:58:05;99902.50;;;23.88;44.02
59825;BME280;45703;50.898;6.054;2023-07-22T13:00:31;99895.34;;;24.01;44.47
59825;BME280;45703;50.898;6.054;2023-07-22T13:02:56;99882.50;;;24.01;43.97
59825;BME280;45703;50.898;6.054;2023-07-22T13:05:22;99886.84;;;24.11;42.91
59825;BME280;45703;50.898;6.054;2023-07-22T13:07:48;99889.25;;;24.12;41.76
59825;BME280;45703;50.898;6.054;2023-07-22T13:10:14;99885.25;;;24.18;42.06
59825;BME280;45703;50.898;6.054;2023-07-22T13:12:43;99870.34;;;24.24;41.23